Terminal Aerodrome Forecast
Issued by NWS

Home | Current Version | Previous Version | Text Only | Print | Product List | Glossary On
Versions: 1 2 3 4 5 6 7 8 9 10 11 12 13
000
FTUS46 KHNX 262320
TAFMCE
TAF
KMCE 262320Z 2700/2724 VRB03KT 5SM HZ SKC
     FM270900 00000KT 3SM BR SKC
      TEMPO 2712/2716 2SM BR
     FM271800 VRB03KT 5SM HZ SCT200=

USA.gov is the U.S. government's official web portal to all federal, state and local government web resources and services.